createdAt,value
2022-10-09T00:00:42.042Z,18.40
2022-10-09T00:03:08.735Z,17.27
2022-10-09T00:05:35.814Z,17.55
2022-10-09T00:08:02.726Z,16.50
2022-10-09T00:10:29.489Z,20.73
2022-10-09T00:12:56.691Z,22.95
2022-10-09T00:15:23.426Z,16.05
2022-10-09T00:17:50.223Z,22.20
2022-10-09T00:20:17.047Z,19.77
2022-10-09T00:22:43.714Z,16.40
2022-10-09T00:25:10.608Z,23.90
2022-10-09T00:27:37.331Z,18.23
2022-10-09T00:30:04.430Z,18.45
2022-10-09T00:32:31.325Z,25.90
2022-10-09T00:34:58.054Z,14.07
2022-10-09T00:37:24.686Z,13.93
2022-10-09T00:39:51.562Z,16.27
2022-10-09T00:42:18.445Z,17.20
2022-10-09T00:44:57.202Z,15.55
2022-10-09T00:47:30.487Z,17.80
2022-10-09T00:50:02.169Z,17.38
2022-10-09T00:52:29.096Z,22.55
2022-10-09T00:54:56.246Z,18.23
2022-10-09T00:57:23.331Z,21.77
2022-10-09T00:59:50.186Z,16.85
2022-10-09T01:02:16.890Z,15.88
2022-10-09T01:04:43.622Z,13.35
2022-10-09T01:07:18.906Z,18.90
2022-10-09T01:09:57.432Z,17.17
2022-10-09T01:13:00.664Z,18.45
2022-10-09T01:15:30.227Z,14.02
2022-10-09T01:18:24.267Z,16.38
2022-10-09T01:21:03.132Z,17.50
2022-10-09T01:23:54.855Z,18.00
2022-10-09T01:26:27.150Z,19.10
2022-10-09T01:28:57.463Z,18.33
2022-10-09T01:31:27.133Z,22.02
2022-10-09T01:33:54.246Z,25.20
2022-10-09T01:36:22.035Z,24.08
2022-10-09T01:38:48.954Z,16.00
2022-10-09T01:41:15.780Z,17.17
2022-10-09T01:43:42.491Z,17.88
2022-10-09T01:46:18.349Z,15.02
2022-10-09T01:48:49.669Z,13.55
2022-10-09T01:51:17.963Z,15.60
2022-10-09T01:53:44.661Z,13.80
2022-10-09T01:56:19.203Z,11.57
2022-10-09T01:58:51.394Z,17.33
2022-10-09T02:01:21.455Z,18.45
2022-10-09T02:03:49.826Z,15.45
2022-10-09T02:06:17.818Z,19.88
2022-10-09T02:08:47.007Z,18.48
2022-10-09T02:11:15.155Z,13.30
2022-10-09T02:13:42.267Z,18.63
2022-10-09T02:16:37.391Z,16.33
2022-10-09T02:19:22.372Z,20.45
2022-10-09T02:22:08.204Z,13.10
2022-10-09T02:24:37.858Z,17.05
2022-10-09T02:27:04.777Z,14.65
2022-10-09T02:29:31.978Z,22.63
2022-10-09T02:31:58.874Z,16.55
2022-10-09T02:34:25.585Z,29.00
2022-10-09T02:36:52.231Z,12.70
2022-10-09T02:39:18.945Z,25.65
2022-10-09T02:41:45.613Z,15.02
2022-10-09T02:44:12.627Z,17.73
2022-10-09T02:46:39.655Z,14.40
2022-10-09T02:49:06.853Z,14.35
2022-10-09T02:51:33.787Z,16.52
2022-10-09T02:54:00.582Z,14.85
2022-10-09T02:56:27.941Z,14.98
2022-10-09T02:58:54.672Z,14.05
2022-10-09T03:01:21.722Z,14.50
2022-10-09T03:03:48.462Z,14.65
2022-10-09T03:06:18.351Z,23.65
2022-10-09T03:08:47.244Z,16.85
2022-10-09T03:11:15.617Z,17.75
2022-10-09T03:13:42.836Z,16.85
2022-10-09T03:16:15.291Z,12.52
2022-10-09T03:18:42.183Z,18.67
2022-10-09T03:21:11.532Z,14.95
2022-10-09T03:23:39.413Z,14.20
2022-10-09T03:26:08.562Z,12.05
2022-10-09T03:28:39.569Z,14.18
2022-10-09T03:31:06.886Z,11.00
2022-10-09T03:33:35.082Z,14.27
2022-10-09T03:36:02.252Z,16.98
2022-10-09T03:38:29.145Z,15.85
2022-10-09T03:40:58.333Z,10.85
2022-10-09T03:43:25.062Z,14.57
2022-10-09T03:45:52.139Z,18.98
2022-10-09T03:48:19.058Z,12.90
2022-10-09T03:50:45.701Z,13.98
2022-10-09T03:53:12.915Z,20.10
2022-10-09T03:55:40.412Z,17.80
2022-10-09T03:58:07.857Z,22.17
2022-10-09T04:00:35.243Z,15.07
2022-10-09T04:03:02.218Z,14.93
2022-10-09T04:05:30.342Z,11.18
2022-10-09T04:07:57.220Z,13.43
2022-10-09T04:10:24.069Z,13.70
2022-10-09T04:12:51.015Z,14.48
2022-10-09T04:15:18.188Z,10.48
2022-10-09T04:17:44.833Z,24.17
2022-10-09T04:20:11.530Z,10.68
2022-10-09T04:22:38.175Z,10.88
2022-10-09T04:25:05.134Z,11.25
2022-10-09T04:27:31.987Z,15.65
2022-10-09T04:29:58.713Z,11.63
2022-10-09T04:32:25.347Z,12.05
2022-10-09T04:34:51.989Z,12.43
2022-10-09T04:37:20.288Z,20.58
2022-10-09T04:39:46.950Z,13.50
2022-10-09T04:42:13.755Z,10.15
2022-10-09T04:44:40.561Z,12.57
2022-10-09T04:47:11.156Z,13.20
2022-10-09T04:49:38.104Z,12.55
2022-10-09T04:52:04.809Z,12.18
2022-10-09T04:54:31.637Z,13.05
2022-10-09T04:56:58.264Z,11.27
2022-10-09T04:59:25.116Z,12.07
2022-10-09T05:01:51.775Z,9.85
2022-10-09T05:04:18.517Z,13.65
2022-10-09T05:06:45.154Z,11.98
2022-10-09T05:09:11.784Z,12.73
2022-10-09T05:11:42.456Z,16.67
2022-10-09T05:14:09.786Z,13.05
2022-10-09T05:16:55.064Z,11.18
2022-10-09T05:19:23.509Z,14.23
2022-10-09T05:21:50.173Z,9.80
2022-10-09T05:24:17.044Z,7.18
2022-10-09T05:26:43.828Z,20.95
2022-10-09T05:29:10.464Z,52.92
2022-10-09T05:31:37.630Z,16.80
2022-10-09T05:34:04.896Z,9.52
2022-10-09T05:36:31.590Z,15.52
2022-10-09T05:39:01.043Z,43.05
2022-10-09T05:41:29.509Z,9.85
2022-10-09T05:44:01.139Z,14.88
2022-10-09T05:46:29.935Z,39.83
2022-10-09T05:49:02.190Z,15.70
2022-10-09T05:51:36.955Z,11.90
2022-10-09T05:54:04.481Z,17.55
2022-10-09T05:56:33.478Z,28.88
2022-10-09T05:59:07.928Z,12.95
2022-10-09T06:01:36.675Z,20.70
2022-10-09T06:04:04.597Z,26.42
2022-10-09T06:06:33.257Z,7.80
2022-10-09T06:08:59.906Z,8.77
2022-10-09T06:11:29.077Z,6.75
2022-10-09T06:13:56.413Z,14.15
2022-10-09T06:16:26.433Z,13.40
2022-10-09T06:18:54.134Z,29.58
2022-10-09T06:21:21.834Z,14.60
2022-10-09T06:23:52.837Z,16.55
2022-10-09T06:26:20.225Z,18.92
2022-10-09T06:28:47.613Z,14.43
2022-10-09T06:31:20.281Z,15.35
2022-10-09T06:33:48.313Z,22.42
2022-10-09T06:36:17.661Z,24.15
2022-10-09T06:38:44.719Z,18.95
2022-10-09T06:41:13.837Z,24.48
2022-10-09T06:43:40.707Z,29.15
2022-10-09T06:46:09.604Z,34.60
2022-10-09T06:48:38.317Z,26.23
2022-10-09T06:51:07.515Z,29.27
2022-10-09T06:53:45.804Z,31.80
2022-10-09T06:56:12.834Z,31.27
2022-10-09T06:58:40.232Z,40.35
2022-10-09T07:01:15.309Z,36.88
2022-10-09T07:03:43.853Z,34.40
2022-10-09T07:06:18.873Z,36.22
2022-10-09T07:08:49.734Z,30.98
2022-10-09T07:11:25.542Z,32.53
2022-10-09T07:13:54.772Z,34.33
2022-10-09T07:16:23.810Z,40.35
2022-10-09T07:18:50.729Z,37.15
2022-10-09T07:21:17.465Z,34.25
2022-10-09T07:23:44.262Z,38.90
2022-10-09T07:26:16.436Z,33.30
2022-10-09T07:28:46.975Z,34.10
2022-10-09T07:31:14.555Z,38.35
2022-10-09T07:33:44.119Z,37.58
2022-10-09T07:36:11.089Z,35.67
2022-10-09T07:38:37.865Z,40.72
2022-10-09T07:41:07.525Z,36.22
2022-10-09T07:43:38.761Z,38.58
2022-10-09T07:46:07.121Z,42.03
2022-10-09T07:48:35.108Z,34.05
2022-10-09T07:51:09.013Z,28.70
2022-10-09T07:53:36.139Z,34.63
2022-10-09T07:56:04.318Z,28.23
2022-10-09T07:58:31.502Z,33.03
2022-10-09T08:01:04.548Z,32.83
2022-10-09T08:03:31.272Z,31.77
2022-10-09T08:05:58.017Z,30.30
2022-10-09T08:08:24.917Z,29.90
2022-10-09T08:10:51.630Z,26.95
2022-10-09T08:13:18.278Z,30.52
2022-10-09T08:15:45.265Z,25.15
2022-10-09T08:18:12.540Z,28.45
2022-10-09T08:20:39.407Z,29.65
2022-10-09T08:23:06.253Z,25.85
2022-10-09T08:25:37.333Z,29.30
2022-10-09T08:28:04.791Z,24.25
2022-10-09T08:30:31.506Z,22.30
2022-10-09T08:32:58.220Z,24.77
2022-10-09T08:35:24.910Z,28.60
2022-10-09T08:37:51.667Z,22.35
2022-10-09T08:40:54.927Z,22.35
2022-10-09T08:43:34.331Z,21.27
2022-10-09T08:46:03.663Z,25.75
2022-10-09T08:48:35.099Z,18.25
2022-10-09T08:51:03.643Z,21.00
2022-10-09T08:53:38.198Z,23.17
2022-10-09T08:56:06.216Z,25.95
2022-10-09T08:58:34.438Z,28.25
2022-10-09T09:01:36.451Z,22.00
2022-10-09T09:04:32.868Z,18.17
2022-10-09T09:07:35.780Z,18.15
2022-10-09T09:10:18.830Z,18.57
2022-10-09T09:13:24.167Z,13.95
2022-10-09T09:15:56.135Z,15.80
2022-10-09T09:18:42.057Z,18.33
2022-10-09T09:21:22.550Z,18.02
2022-10-09T09:23:49.347Z,14.50
2022-10-09T09:26:18.002Z,13.70
2022-10-09T09:28:44.907Z,17.80
2022-10-09T09:31:28.159Z,11.85
2022-10-09T09:34:11.318Z,12.90
2022-10-09T09:36:55.822Z,14.10
2022-10-09T09:40:08.243Z,14.75
2022-10-09T09:42:17.641Z,15.95
2022-10-09T09:45:00.629Z,13.65
2022-10-09T09:47:38.997Z,15.57
2022-10-09T09:50:06.399Z,13.75
2022-10-09T09:52:40.273Z,15.93
2022-10-09T09:55:07.434Z,13.93
2022-10-09T09:57:36.608Z,20.25
2022-10-09T10:00:29.808Z,12.25
2022-10-09T10:03:23.189Z,14.52
2022-10-09T10:05:49.889Z,10.77
2022-10-09T10:08:31.282Z,9.77
2022-10-09T10:11:00.318Z,9.95
2022-10-09T10:13:34.534Z,14.23
2022-10-09T10:16:01.773Z,11.80
2022-10-09T10:18:32.158Z,11.65
2022-10-09T10:21:11.553Z,7.50
2022-10-09T10:23:41.998Z,12.13
2022-10-09T10:26:20.701Z,14.20
2022-10-09T10:28:52.202Z,10.30
2022-10-09T10:31:36.242Z,13.13
2022-10-09T10:34:03.529Z,9.85
2022-10-09T10:36:30.194Z,8.65
2022-10-09T10:39:05.251Z,6.75
2022-10-09T10:41:36.774Z,6.75
2022-10-09T10:44:19.039Z,9.85
2022-10-09T10:46:59.857Z,13.50
2022-10-09T10:49:30.617Z,20.13
2022-10-09T10:52:47.414Z,9.10
2022-10-09T10:55:32.126Z,13.60
2022-10-09T10:58:28.272Z,14.63
2022-10-09T11:01:06.468Z,9.30
2022-10-09T11:03:43.142Z,9.38
2022-10-09T11:06:22.906Z,11.38
2022-10-09T11:09:11.785Z,12.65
2022-10-09T11:11:50.200Z,11.98
2022-10-09T11:14:35.429Z,9.82
2022-10-09T11:17:18.757Z,14.88
2022-10-09T11:22:28.156Z,12.15
2022-10-09T11:25:13.467Z,9.40
2022-10-09T11:28:03.140Z,12.07
2022-10-09T11:30:42.872Z,8.23
2022-10-09T11:33:29.558Z,12.65
2022-10-09T11:36:07.026Z,11.32
2022-10-09T11:38:38.358Z,10.55
2022-10-09T11:41:07.417Z,7.22
2022-10-09T11:43:52.973Z,12.45
2022-10-09T11:46:38.859Z,12.07
2022-10-09T11:49:24.897Z,9.95
2022-10-09T11:52:11.005Z,10.45
2022-10-09T11:54:37.653Z,8.55
2022-10-09T11:57:06.295Z,8.98
2022-10-09T11:59:36.397Z,5.55
2022-10-09T12:02:25.887Z,8.95
2022-10-09T12:04:55.491Z,7.88
2022-10-09T12:07:26.981Z,7.40
2022-10-09T12:09:59.205Z,8.35
2022-10-09T12:12:25.960Z,11.63
2022-10-09T12:14:53.148Z,3.55
2022-10-09T12:17:22.814Z,8.73
2022-10-09T12:20:02.025Z,6.88
2022-10-09T12:22:39.982Z,6.30
2022-10-09T12:25:13.329Z,9.73
2022-10-09T12:27:41.834Z,11.25
2022-10-09T12:30:12.686Z,10.63
2022-10-09T12:32:43.730Z,10.07
2022-10-09T12:35:16.600Z,11.68
2022-10-09T12:37:43.254Z,6.95
2022-10-09T12:40:15.683Z,6.65
2022-10-09T12:42:44.118Z,13.48
2022-10-09T12:45:18.785Z,9.25
2022-10-09T12:47:46.178Z,11.50
2022-10-09T12:50:15.852Z,7.45
2022-10-09T12:52:55.183Z,13.13
2022-10-09T12:55:29.284Z,6.90
2022-10-09T12:58:03.384Z,4.97
2022-10-09T13:00:32.173Z,8.48
2022-10-09T13:02:59.095Z,7.70
2022-10-09T13:05:37.553Z,11.60
2022-10-09T13:08:04.670Z,7.00
2022-10-09T13:10:31.409Z,8.85
2022-10-09T13:12:58.872Z,5.13
2022-10-09T13:15:32.859Z,5.85
2022-10-09T13:17:59.974Z,6.63
2022-10-09T13:20:32.149Z,9.57
2022-10-09T13:23:03.915Z,6.97
2022-10-09T13:25:35.564Z,9.07
2022-10-09T13:28:03.352Z,7.90
2022-10-09T13:30:30.435Z,13.60
2022-10-09T13:32:57.485Z,7.03
2022-10-09T13:35:24.251Z,5.00
2022-10-09T13:37:51.275Z,10.00
2022-10-09T13:40:20.663Z,7.28
2022-10-09T13:42:52.970Z,7.70
2022-10-09T13:45:19.829Z,5.70
2022-10-09T13:47:46.938Z,6.93
2022-10-09T13:50:14.609Z,7.70
2022-10-09T13:52:41.699Z,11.23
2022-10-09T13:55:09.083Z,9.60
2022-10-09T13:57:35.743Z,5.35
2022-10-09T14:00:03.037Z,12.65
2022-10-09T14:02:39.014Z,8.10
2022-10-09T14:05:06.084Z,7.88
2022-10-09T14:07:32.940Z,9.68
2022-10-09T14:09:59.624Z,7.68
2022-10-09T14:12:26.398Z,6.25
2022-10-09T14:14:53.722Z,5.57
2022-10-09T14:17:20.393Z,7.03
2022-10-09T14:19:47.102Z,8.13
2022-10-09T14:22:14.674Z,6.80
2022-10-09T14:24:41.472Z,8.13
2022-10-09T14:27:08.311Z,8.48
2022-10-09T14:29:34.995Z,5.55
2022-10-09T14:32:01.650Z,7.95
2022-10-09T14:34:28.297Z,4.93
2022-10-09T14:36:54.990Z,5.95
2022-10-09T14:39:21.828Z,9.15
2022-10-09T14:41:48.560Z,7.55
2022-10-09T14:44:15.466Z,8.18
2022-10-09T14:46:42.142Z,4.80
2022-10-09T14:49:10.177Z,12.13
2022-10-09T14:51:38.466Z,8.00
2022-10-09T14:54:06.081Z,9.52
2022-10-09T14:56:33.563Z,6.25
2022-10-09T14:59:00.986Z,7.72
2022-10-09T15:01:29.138Z,6.88
2022-10-09T15:03:55.997Z,8.40
2022-10-09T15:06:25.477Z,6.88
2022-10-09T15:08:55.769Z,5.15
2022-10-09T15:11:23.056Z,7.43
2022-10-09T15:13:49.800Z,5.50
2022-10-09T15:16:17.821Z,6.00
2022-10-09T15:18:45.410Z,11.90
2022-10-09T15:21:17.394Z,20.63
2022-10-09T15:23:44.590Z,13.30
2022-10-09T15:26:11.404Z,10.23
2022-10-09T15:28:39.433Z,7.80
2022-10-09T15:31:07.778Z,10.52
2022-10-09T15:33:34.719Z,8.68
2022-10-09T15:36:03.951Z,5.25
2022-10-09T15:38:30.827Z,6.25
2022-10-09T15:40:57.507Z,7.10
2022-10-09T15:43:25.907Z,6.10
2022-10-09T15:45:55.922Z,7.60
2022-10-09T15:48:24.986Z,7.78
2022-10-09T15:50:53.543Z,4.15
2022-10-09T15:53:22.665Z,5.38
2022-10-09T15:55:51.527Z,6.00
2022-10-09T15:58:19.117Z,7.75
2022-10-09T16:00:48.781Z,4.57
2022-10-09T16:03:17.287Z,3.67
2022-10-09T16:05:48.342Z,4.97
2022-10-09T16:08:16.698Z,8.27
2022-10-09T16:10:48.558Z,6.68
2022-10-09T16:13:15.914Z,4.55
2022-10-09T16:15:43.524Z,7.18
2022-10-09T16:18:10.669Z,7.60
2022-10-09T16:20:38.433Z,7.30
2022-10-09T16:23:05.549Z,5.78
2022-10-09T16:25:32.823Z,7.00
2022-10-09T16:27:59.770Z,6.88
2022-10-09T16:30:27.034Z,7.00
2022-10-09T16:32:53.777Z,4.07
2022-10-09T16:35:21.605Z,8.73
2022-10-09T16:37:48.265Z,6.85
2022-10-09T16:40:14.929Z,6.43
2022-10-09T16:42:41.586Z,6.45
2022-10-09T16:45:09.063Z,6.00
2022-10-09T16:47:35.884Z,8.73
2022-10-09T16:50:02.611Z,6.97
2022-10-09T16:52:29.315Z,6.18
2022-10-09T16:55:00.174Z,6.78
2022-10-09T16:57:27.154Z,10.30
2022-10-09T16:59:54.049Z,8.93
2022-10-09T17:02:20.752Z,3.85
2022-10-09T17:04:47.612Z,5.28
2022-10-09T17:07:14.443Z,8.02
2022-10-09T17:09:41.156Z,5.97
2022-10-09T17:12:09.648Z,8.20
2022-10-09T17:14:37.234Z,7.30
2022-10-09T17:17:05.530Z,15.00
2022-10-09T17:19:32.700Z,7.05
2022-10-09T17:22:00.675Z,6.95
2022-10-09T17:24:27.806Z,9.68
2022-10-09T17:26:55.099Z,11.65
2022-10-09T17:29:22.663Z,7.38
2022-10-09T17:31:49.591Z,8.00
2022-10-09T17:34:16.450Z,9.98
2022-10-09T17:36:44.710Z,15.70
2022-10-09T17:39:14.486Z,6.63
2022-10-09T17:41:41.618Z,10.43
2022-10-09T17:44:09.714Z,8.55
2022-10-09T17:46:36.338Z,10.00
2022-10-09T17:49:03.377Z,7.35
2022-10-09T17:51:40.439Z,10.75
2022-10-09T17:54:12.094Z,7.50
2022-10-09T17:56:39.227Z,7.80
2022-10-09T17:59:06.077Z,12.90
2022-10-09T18:01:33.483Z,7.85
2022-10-09T18:04:00.500Z,13.25
2022-10-09T18:06:30.081Z,7.85
2022-10-09T18:08:58.098Z,6.88
2022-10-09T18:11:25.666Z,6.13
2022-10-09T18:13:52.904Z,13.77
2022-10-09T18:16:24.116Z,9.98
2022-10-09T18:18:50.893Z,13.65
2022-10-09T18:21:17.751Z,9.88
2022-10-09T18:23:46.085Z,13.35
2022-10-09T18:26:15.902Z,11.18
2022-10-09T18:28:46.048Z,7.55
2022-10-09T18:31:18.593Z,10.57
2022-10-09T18:33:45.644Z,9.63
2022-10-09T18:36:19.733Z,13.98
2022-10-09T18:38:51.805Z,7.68
2022-10-09T18:41:19.145Z,9.20
2022-10-09T18:43:46.405Z,12.55
2022-10-09T18:46:15.045Z,7.22
2022-10-09T18:48:41.993Z,6.97
2022-10-09T18:51:13.388Z,7.35
2022-10-09T18:53:40.952Z,8.63
2022-10-09T18:56:08.032Z,8.70
2022-10-09T18:58:35.552Z,12.60
2022-10-09T19:01:05.462Z,11.15
2022-10-09T19:03:34.309Z,9.38
2022-10-09T19:06:01.004Z,10.90
2022-10-09T19:08:27.673Z,7.43
2022-10-09T19:10:54.326Z,13.20
2022-10-09T19:13:21.105Z,9.13
2022-10-09T19:15:58.217Z,10.07
2022-10-09T19:18:26.385Z,11.95
2022-10-09T19:20:53.328Z,12.00
2022-10-09T19:23:19.998Z,9.63
2022-10-09T19:25:53.556Z,10.48
2022-10-09T19:28:22.002Z,10.57
2022-10-09T19:30:48.806Z,8.63
2022-10-09T19:33:15.990Z,9.55
2022-10-09T19:35:50.005Z,11.00
2022-10-09T19:38:17.947Z,11.27
2022-10-09T19:40:45.287Z,12.93
2022-10-09T19:43:12.825Z,8.50
2022-10-09T19:45:39.911Z,9.25
2022-10-09T19:48:07.103Z,9.80
2022-10-09T19:50:34.494Z,8.68
2022-10-09T19:53:03.376Z,12.45
2022-10-09T19:55:33.217Z,10.20
2022-10-09T19:58:00.489Z,12.48
2022-10-09T20:00:27.335Z,10.25
2022-10-09T20:02:54.061Z,10.52
2022-10-09T20:05:21.356Z,10.68
2022-10-09T20:07:48.219Z,12.27
2022-10-09T20:10:14.922Z,11.48
2022-10-09T20:12:41.674Z,13.65
2022-10-09T20:15:08.966Z,15.48
2022-10-09T20:17:35.729Z,10.30
2022-10-09T20:20:06.378Z,11.63
2022-10-09T20:22:33.163Z,13.27
2022-10-09T20:24:59.807Z,12.07
2022-10-09T20:27:26.486Z,9.60
2022-10-09T20:29:53.870Z,8.45
2022-10-09T20:32:20.494Z,9.65
2022-10-09T20:34:47.216Z,10.55
2022-10-09T20:37:13.859Z,10.02
2022-10-09T20:39:40.672Z,11.38
2022-10-09T20:42:07.526Z,11.10
2022-10-09T20:44:34.492Z,11.15
2022-10-09T20:47:01.147Z,12.38
2022-10-09T20:49:27.938Z,16.90
2022-10-09T20:51:56.746Z,18.48
2022-10-09T20:54:23.562Z,11.30
2022-10-09T20:56:50.712Z,11.85
2022-10-09T20:59:18.118Z,13.82
2022-10-09T21:01:45.585Z,11.27
2022-10-09T21:04:12.658Z,12.02
2022-10-09T21:06:39.476Z,17.98
2022-10-09T21:09:06.697Z,16.02
2022-10-09T21:11:35.011Z,16.27
2022-10-09T21:14:02.628Z,17.00
2022-10-09T21:16:29.670Z,22.17
2022-10-09T21:18:58.667Z,13.70
2022-10-09T21:21:26.390Z,15.07
2022-10-09T21:23:54.518Z,16.50
2022-10-09T21:26:22.485Z,13.30
2022-10-09T21:28:49.285Z,12.35
2022-10-09T21:31:18.565Z,10.82
2022-10-09T21:33:46.022Z,14.10
2022-10-09T21:36:36.060Z,14.00
2022-10-09T21:39:04.274Z,7.18
2022-10-09T21:41:31.048Z,18.23
2022-10-09T21:43:57.837Z,11.52
2022-10-09T21:46:24.657Z,9.85
2022-10-09T21:48:51.313Z,10.85
2022-10-09T21:51:18.091Z,7.60
2022-10-09T21:53:45.115Z,12.00
2022-10-09T21:56:12.054Z,17.05
2022-10-09T21:58:40.265Z,13.13
2022-10-09T22:01:07.242Z,13.43
2022-10-09T22:03:35.441Z,9.65
2022-10-09T22:06:07.418Z,10.77
2022-10-09T22:08:34.354Z,11.85
2022-10-09T22:11:03.990Z,12.65
2022-10-09T22:13:30.740Z,10.88
2022-10-09T22:15:57.398Z,14.75
2022-10-09T22:18:24.062Z,15.27
2022-10-09T22:20:51.287Z,6.88
2022-10-09T22:23:19.476Z,11.95
2022-10-09T22:25:58.630Z,8.57
2022-10-09T22:28:25.547Z,10.10
2022-10-09T22:31:03.931Z,12.43
2022-10-09T22:33:31.203Z,12.18
2022-10-09T22:36:04.978Z,14.10
2022-10-09T22:38:32.017Z,16.83
2022-10-09T22:41:06.513Z,15.65
2022-10-09T22:43:33.186Z,9.68
2022-10-09T22:46:00.016Z,9.38
2022-10-09T22:48:26.662Z,15.02
2022-10-09T22:50:53.299Z,11.32
2022-10-09T22:53:20.005Z,14.65
2022-10-09T22:55:46.620Z,10.80
2022-10-09T22:58:13.391Z,8.23
2022-10-09T23:00:40.023Z,15.35
2022-10-09T23:03:06.888Z,7.78
2022-10-09T23:05:33.577Z,9.65
2022-10-09T23:08:00.247Z,11.68
2022-10-09T23:10:26.998Z,11.77
2022-10-09T23:12:53.770Z,19.85
2022-10-09T23:15:20.439Z,10.88
2022-10-09T23:17:47.131Z,16.95
2022-10-09T23:20:13.851Z,18.05
2022-10-09T23:22:40.650Z,11.77
2022-10-09T23:25:07.678Z,17.42
2022-10-09T23:27:34.319Z,15.18
2022-10-09T23:30:01.057Z,13.55
2022-10-09T23:32:27.935Z,9.27
2022-10-09T23:34:54.685Z,16.42
2022-10-09T23:37:21.351Z,9.15
2022-10-09T23:39:48.056Z,9.93
2022-10-09T23:42:14.737Z,17.08
2022-10-09T23:44:41.410Z,15.98
2022-10-09T23:47:08.107Z,18.90
2022-10-09T23:49:34.887Z,16.90
2022-10-09T23:52:01.633Z,12.23
2022-10-09T23:54:28.335Z,10.48
2022-10-09T23:56:54.977Z,10.63
2022-10-09T23:59:21.642Z,10.65
